sensor_id;sensor_type;location;lat;lon;timestamp;pressure;altitude;pressure_sealevel;temperature;humidity
18504;BME280;9381;54.244;10.074;2023-12-22T00:01:03;98051.91;;;7.57;63.49
18504;BME280;9381;54.244;10.074;2023-12-22T00:06:04;98063.97;;;7.44;64.23
18504;BME280;9381;54.244;10.074;2023-12-22T00:11:04;98062.91;;;7.45;62.82
18504;BME280;9381;54.244;10.074;2023-12-22T00:16:04;98092.00;;;7.53;64.07
18504;BME280;9381;54.244;10.074;2023-12-22T00:21:09;98076.41;;;7.55;64.52
18504;BME280;9381;54.244;10.074;2023-12-22T00:26:09;98078.22;;;7.45;63.69
18504;BME280;9381;54.244;10.074;2023-12-22T00:31:10;98086.03;;;7.46;63.75
18504;BME280;9381;54.244;10.074;2023-12-22T00:36:12;98077.19;;;7.51;65.41
18504;BME280;9381;54.244;10.074;2023-12-22T00:41:12;98066.63;;;7.39;65.62
18504;BME280;9381;54.244;10.074;2023-12-22T00:46:13;98068.22;;;7.40;64.67
18504;BME280;9381;54.244;10.074;2023-12-22T00:51:14;98059.16;;;7.51;65.02
18504;BME280;9381;54.244;10.074;2023-12-22T00:56:14;98082.75;;;7.39;65.98
18504;BME280;9381;54.244;10.074;2023-12-22T01:01:14;98084.97;;;7.52;66.88
18504;BME280;9381;54.244;10.074;2023-12-22T01:06:15;98076.25;;;7.30;66.59
18504;BME280;9381;54.244;10.074;2023-12-22T01:11:18;98091.94;;;7.48;66.25
18504;BME280;9381;54.244;10.074;2023-12-22T01:16:18;98096.00;;;7.51;67.64
18504;BME280;9381;54.244;10.074;2023-12-22T01:21:21;98095.22;;;7.60;67.79
18504;BME280;9381;54.244;10.074;2023-12-22T01:26:22;98093.28;;;7.46;68.23
18504;BME280;9381;54.244;10.074;2023-12-22T01:31:22;98101.69;;;7.54;68.22
18504;BME280;9381;54.244;10.074;2023-12-22T01:36:22;98118.38;;;7.61;67.74
18504;BME280;9381;54.244;10.074;2023-12-22T01:41:23;98111.66;;;7.64;67.98
18504;BME280;9381;54.244;10.074;2023-12-22T01:46:23;98108.47;;;7.67;67.98
18504;BME280;9381;54.244;10.074;2023-12-22T01:51:23;98107.34;;;7.63;67.97
18504;BME280;9381;54.244;10.074;2023-12-22T01:56:24;98114.53;;;7.52;67.89
18504;BME280;9381;54.244;10.074;2023-12-22T02:01:25;98108.72;;;7.70;68.22
18504;BME280;9381;54.244;10.074;2023-12-22T02:06:30;98103.94;;;7.72;67.38
18504;BME280;9381;54.244;10.074;2023-12-22T02:11:30;98101.31;;;7.41;74.76
18504;BME280;9381;54.244;10.074;2023-12-22T02:22:08;98134.00;;;7.28;85.11
18504;BME280;9381;54.244;10.074;2023-12-22T02:32:27;98115.19;;;6.91;88.38
18504;BME280;9381;54.244;10.074;2023-12-22T02:37:30;98128.53;;;6.55;87.90
18504;BME280;9381;54.244;10.074;2023-12-22T02:42:32;98129.25;;;6.45;88.52
18504;BME280;9381;54.244;10.074;2023-12-22T02:47:33;98133.59;;;6.25;90.20
18504;BME280;9381;54.244;10.074;2023-12-22T02:52:34;98132.28;;;6.27;91.15
18504;BME280;9381;54.244;10.074;2023-12-22T02:57:35;98138.75;;;6.31;91.91
18504;BME280;9381;54.244;10.074;2023-12-22T03:02:35;98129.53;;;6.22;92.21
18504;BME280;9381;54.244;10.074;2023-12-22T03:07:36;98145.28;;;6.40;93.07
18504;BME280;9381;54.244;10.074;2023-12-22T03:12:36;98131.66;;;6.20;93.75
18504;BME280;9381;54.244;10.074;2023-12-22T03:17:36;98139.28;;;6.28;94.56
18504;BME280;9381;54.244;10.074;2023-12-22T03:22:37;98121.81;;;6.04;95.08
18504;BME280;9381;54.244;10.074;2023-12-22T03:27:37;98122.84;;;6.25;94.48
18504;BME280;9381;54.244;10.074;2023-12-22T03:32:38;98123.28;;;6.38;94.41
18504;BME280;9381;54.244;10.074;2023-12-22T03:37:38;98143.25;;;6.26;94.42
18504;BME280;9381;54.244;10.074;2023-12-22T03:42:38;98121.91;;;6.14;96.00
18504;BME280;9381;54.244;10.074;2023-12-22T03:47:39;98125.97;;;6.17;96.11
18504;BME280;9381;54.244;10.074;2023-12-22T03:52:39;98136.09;;;6.10;96.83
18504;BME280;9381;54.244;10.074;2023-12-22T03:57:39;98139.84;;;6.09;95.45
18504;BME280;9381;54.244;10.074;2023-12-22T04:02:40;98129.84;;;5.83;96.24
18504;BME280;9381;54.244;10.074;2023-12-22T04:07:40;98135.09;;;5.94;96.49
18504;BME280;9381;54.244;10.074;2023-12-22T04:12:40;98135.50;;;6.03;96.68
18504;BME280;9381;54.244;10.074;2023-12-22T04:17:41;98134.66;;;6.02;95.43
18504;BME280;9381;54.244;10.074;2023-12-22T04:22:41;98136.59;;;6.07;94.91
18504;BME280;9381;54.244;10.074;2023-12-22T04:27:41;98152.25;;;5.93;95.63
18504;BME280;9381;54.244;10.074;2023-12-22T04:32:42;98177.69;;;5.91;95.73
18504;BME280;9381;54.244;10.074;2023-12-22T04:37:42;98156.94;;;5.81;95.48
18504;BME280;9381;54.244;10.074;2023-12-22T04:42:43;98125.47;;;5.60;95.58
18504;BME280;9381;54.244;10.074;2023-12-22T04:47:43;98137.34;;;5.64;94.29
18504;BME280;9381;54.244;10.074;2023-12-22T04:52:44;98123.88;;;5.59;92.86
18504;BME280;9381;54.244;10.074;2023-12-22T04:57:44;98137.22;;;5.55;91.17
18504;BME280;9381;54.244;10.074;2023-12-22T05:02:44;98129.09;;;5.50;90.35
18504;BME280;9381;54.244;10.074;2023-12-22T05:07:45;98133.16;;;5.52;88.90
18504;BME280;9381;54.244;10.074;2023-12-22T05:12:45;98128.53;;;5.48;87.24
18504;BME280;9381;54.244;10.074;2023-12-22T05:17:45;98145.63;;;5.63;86.87
18504;BME280;9381;54.244;10.074;2023-12-22T05:22:46;98137.41;;;5.69;85.12
18504;BME280;9381;54.244;10.074;2023-12-22T05:27:46;98141.06;;;5.80;81.66
18504;BME280;9381;54.244;10.074;2023-12-22T05:32:46;98148.81;;;5.98;80.08
18504;BME280;9381;54.244;10.074;2023-12-22T05:37:46;98150.19;;;6.00;77.37
18504;BME280;9381;54.244;10.074;2023-12-22T05:42:48;98163.31;;;5.97;76.62
18504;BME280;9381;54.244;10.074;2023-12-22T05:47:48;98172.34;;;6.12;76.30
18504;BME280;9381;54.244;10.074;2023-12-22T05:52:48;98179.44;;;6.23;74.20
18504;BME280;9381;54.244;10.074;2023-12-22T05:57:49;98196.44;;;6.07;75.04
18504;BME280;9381;54.244;10.074;2023-12-22T06:02:49;98209.25;;;6.22;74.80
18504;BME280;9381;54.244;10.074;2023-12-22T06:07:50;98208.78;;;6.08;75.18
18504;BME280;9381;54.244;10.074;2023-12-22T06:12:50;98232.06;;;6.24;75.75
18504;BME280;9381;54.244;10.074;2023-12-22T06:17:50;98239.69;;;6.32;74.45
18504;BME280;9381;54.244;10.074;2023-12-22T06:22:51;98256.59;;;6.11;75.69
18504;BME280;9381;54.244;10.074;2023-12-22T06:27:51;98262.22;;;6.31;75.47
18504;BME280;9381;54.244;10.074;2023-12-22T06:32:51;98293.78;;;6.24;77.33
18504;BME280;9381;54.244;10.074;2023-12-22T06:37:52;98297.81;;;6.05;78.28
18504;BME280;9381;54.244;10.074;2023-12-22T06:42:54;98295.91;;;6.22;77.18
18504;BME280;9381;54.244;10.074;2023-12-22T06:47:55;98315.66;;;5.95;78.27
18504;BME280;9381;54.244;10.074;2023-12-22T06:52:55;98311.06;;;5.95;79.03
18504;BME280;9381;54.244;10.074;2023-12-22T06:57:55;98334.25;;;6.01;78.75
18504;BME280;9381;54.244;10.074;2023-12-22T07:02:56;98338.97;;;5.94;79.29
18504;BME280;9381;54.244;10.074;2023-12-22T07:07:56;98357.91;;;6.04;79.36
18504;BME280;9381;54.244;10.074;2023-12-22T07:12:58;98363.75;;;6.01;79.63
18504;BME280;9381;54.244;10.074;2023-12-22T07:17:58;98367.00;;;6.03;80.58
18504;BME280;9381;54.244;10.074;2023-12-22T07:22:59;98380.03;;;6.11;81.28
18504;BME280;9381;54.244;10.074;2023-12-22T07:27:59;98391.56;;;6.12;80.22
18504;BME280;9381;54.244;10.074;2023-12-22T07:32:59;98398.47;;;6.08;81.32
18504;BME280;9381;54.244;10.074;2023-12-22T07:38:00;98415.63;;;6.07;81.27
18504;BME280;9381;54.244;10.074;2023-12-22T07:43:03;98427.91;;;6.19;82.14
18504;BME280;9381;54.244;10.074;2023-12-22T07:48:04;98456.44;;;5.92;89.61
18504;BME280;9381;54.244;10.074;2023-12-22T07:53:04;98445.66;;;5.76;91.86
18504;BME280;9381;54.244;10.074;2023-12-22T07:58:05;98453.06;;;5.57;91.58
18504;BME280;9381;54.244;10.074;2023-12-22T08:03:05;98475.53;;;5.68;89.45
18504;BME280;9381;54.244;10.074;2023-12-22T08:08:05;98461.78;;;5.64;88.12
18504;BME280;9381;54.244;10.074;2023-12-22T08:13:06;98482.75;;;5.67;87.58
18504;BME280;9381;54.244;10.074;2023-12-22T08:18:06;98484.13;;;5.70;87.16
18504;BME280;9381;54.244;10.074;2023-12-22T08:23:07;98481.88;;;5.78;85.61
18504;BME280;9381;54.244;10.074;2023-12-22T08:28:07;98486.50;;;5.94;85.28
18504;BME280;9381;54.244;10.074;2023-12-22T08:33:07;98496.47;;;5.82;85.94
18504;BME280;9381;54.244;10.074;2023-12-22T08:38:08;98505.22;;;5.89;85.87
18504;BME280;9381;54.244;10.074;2023-12-22T08:43:08;98517.94;;;5.82;85.06
18504;BME280;9381;54.244;10.074;2023-12-22T08:48:08;98524.56;;;5.91;83.84
18504;BME280;9381;54.244;10.074;2023-12-22T08:53:09;98553.16;;;5.86;83.38
18504;BME280;9381;54.244;10.074;2023-12-22T08:58:09;98549.44;;;6.03;83.12
18504;BME280;9381;54.244;10.074;2023-12-22T09:03:09;98550.94;;;6.11;82.42
18504;BME280;9381;54.244;10.074;2023-12-22T09:08:10;98565.56;;;6.03;82.02
18504;BME280;9381;54.244;10.074;2023-12-22T09:13:10;98572.06;;;6.35;81.25
18504;BME280;9381;54.244;10.074;2023-12-22T09:18:11;98564.13;;;6.12;80.37
18504;BME280;9381;54.244;10.074;2023-12-22T09:23:11;98572.13;;;6.40;79.82
18504;BME280;9381;54.244;10.074;2023-12-22T09:28:12;98584.78;;;6.56;78.25
18504;BME280;9381;54.244;10.074;2023-12-22T09:33:13;98587.13;;;6.69;77.96
18504;BME280;9381;54.244;10.074;2023-12-22T09:38:13;98587.63;;;6.66;79.23
18504;BME280;9381;54.244;10.074;2023-12-22T09:43:14;98590.22;;;6.61;78.96
18504;BME280;9381;54.244;10.074;2023-12-22T09:48:17;98593.19;;;6.76;78.78
18504;BME280;9381;54.244;10.074;2023-12-22T09:53:19;98581.94;;;6.63;78.58
18504;BME280;9381;54.244;10.074;2023-12-22T09:58:21;98603.44;;;6.79;79.10
18504;BME280;9381;54.244;10.074;2023-12-22T10:03:23;98601.81;;;7.11;77.45
18504;BME280;9381;54.244;10.074;2023-12-22T10:08:26;98597.59;;;7.53;76.38
18504;BME280;9381;54.244;10.074;2023-12-22T10:13:26;98589.53;;;7.53;76.53
18504;BME280;9381;54.244;10.074;2023-12-22T10:18:28;98610.75;;;7.93;75.67
18504;BME280;9381;54.244;10.074;2023-12-22T10:23:29;98600.16;;;7.86;73.67
18504;BME280;9381;54.244;10.074;2023-12-22T10:28:29;98607.91;;;7.61;75.77
18504;BME280;9381;54.244;10.074;2023-12-22T10:33:29;98623.63;;;6.82;80.75
18504;BME280;9381;54.244;10.074;2023-12-22T10:38:33;98631.44;;;6.83;80.96
18504;BME280;9381;54.244;10.074;2023-12-22T10:43:38;98637.78;;;6.77;81.97
18504;BME280;9381;54.244;10.074;2023-12-22T10:48:40;98633.59;;;7.52;79.29
18504;BME280;9381;54.244;10.074;2023-12-22T10:53:41;98634.91;;;7.88;77.22
18504;BME280;9381;54.244;10.074;2023-12-22T10:58:42;98620.56;;;9.41;70.66
18504;BME280;9381;54.244;10.074;2023-12-22T11:03:44;98615.41;;;9.81;65.19
18504;BME280;9381;54.244;10.074;2023-12-22T11:08:46;98631.44;;;9.51;65.19
18504;BME280;9381;54.244;10.074;2023-12-22T11:13:50;98621.69;;;9.08;68.13
18504;BME280;9381;54.244;10.074;2023-12-22T11:18:53;98628.75;;;8.83;67.95
18504;BME280;9381;54.244;10.074;2023-12-22T11:23:55;98622.03;;;8.59;67.90
18504;BME280;9381;54.244;10.074;2023-12-22T11:28:57;98619.13;;;8.39;69.06
18504;BME280;9381;54.244;10.074;2023-12-22T11:33:59;98628.25;;;8.60;68.83
18504;BME280;9381;54.244;10.074;2023-12-22T11:39:01;98617.88;;;8.47;68.67
18504;BME280;9381;54.244;10.074;2023-12-22T11:44:04;98626.31;;;8.55;69.05
18504;BME280;9381;54.244;10.074;2023-12-22T11:49:05;98620.97;;;8.34;68.46
18504;BME280;9381;54.244;10.074;2023-12-22T11:59:46;98622.66;;;7.97;71.08
18504;BME280;9381;54.244;10.074;2023-12-22T12:04:53;98630.63;;;8.56;68.35
18504;BME280;9381;54.244;10.074;2023-12-22T12:09:54;98635.22;;;8.34;69.03
18504;BME280;9381;54.244;10.074;2023-12-22T12:14:57;98640.03;;;8.54;68.65
18504;BME280;9381;54.244;10.074;2023-12-22T12:19:58;98628.84;;;8.93;67.03
18504;BME280;9381;54.244;10.074;2023-12-22T12:24:59;98618.81;;;9.20;65.34
18504;BME280;9381;54.244;10.074;2023-12-22T12:30:07;98629.06;;;8.60;66.48
18504;BME280;9381;54.244;10.074;2023-12-22T12:35:09;98608.41;;;8.44;66.96
18504;BME280;9381;54.244;10.074;2023-12-22T12:40:11;98622.50;;;8.51;67.03
18504;BME280;9381;54.244;10.074;2023-12-22T12:45:11;98617.81;;;8.42;67.32
18504;BME280;9381;54.244;10.074;2023-12-22T12:50:11;98597.38;;;8.46;67.41
18504;BME280;9381;54.244;10.074;2023-12-22T12:55:12;98612.94;;;8.39;68.80
18504;BME280;9381;54.244;10.074;2023-12-22T13:00:13;98634.72;;;7.94;73.71
18504;BME280;9381;54.244;10.074;2023-12-22T13:05:21;98637.06;;;7.69;75.21
18504;BME280;9381;54.244;10.074;2023-12-22T13:10:25;98617.91;;;7.44;76.45
18504;BME280;9381;54.244;10.074;2023-12-22T13:15:26;98618.53;;;7.51;76.02
18504;BME280;9381;54.244;10.074;2023-12-22T13:20:27;98628.34;;;7.41;74.17
18504;BME280;9381;54.244;10.074;2023-12-22T13:25:27;98619.81;;;7.27;73.88
18504;BME280;9381;54.244;10.074;2023-12-22T13:30:36;98623.97;;;7.18;73.99
18504;BME280;9381;54.244;10.074;2023-12-22T13:35:40;98637.47;;;7.23;74.32
18504;BME280;9381;54.244;10.074;2023-12-22T13:40:44;98619.06;;;7.15;75.24
18504;BME280;9381;54.244;10.074;2023-12-22T13:45:51;98657.03;;;7.19;75.97
18504;BME280;9381;54.244;10.074;2023-12-22T13:50:56;98652.47;;;7.03;75.85
18504;BME280;9381;54.244;10.074;2023-12-22T13:55:59;98649.78;;;7.19;75.99
18504;BME280;9381;54.244;10.074;2023-12-22T14:01:12;98648.06;;;6.97;75.58
18504;BME280;9381;54.244;10.074;2023-12-22T14:06:13;98652.16;;;7.16;75.50
18504;BME280;9381;54.244;10.074;2023-12-22T14:11:14;98648.06;;;7.13;75.27
18504;BME280;9381;54.244;10.074;2023-12-22T14:16:15;98655.81;;;6.93;75.17
18504;BME280;9381;54.244;10.074;2023-12-22T14:21:15;98656.19;;;6.85;75.95
18504;BME280;9381;54.244;10.074;2023-12-22T14:26:16;98659.63;;;6.97;76.30
18504;BME280;9381;54.244;10.074;2023-12-22T14:31:17;98661.06;;;6.88;76.35
18504;BME280;9381;54.244;10.074;2023-12-22T14:36:17;98671.53;;;6.85;76.52
18504;BME280;9381;54.244;10.074;2023-12-22T14:41:18;98669.72;;;6.90;75.18
18504;BME280;9381;54.244;10.074;2023-12-22T14:46:18;98684.63;;;6.81;75.44
18504;BME280;9381;54.244;10.074;2023-12-22T14:51:18;98673.09;;;6.69;74.12
18504;BME280;9381;54.244;10.074;2023-12-22T14:56:19;98694.41;;;6.59;74.79
18504;BME280;9381;54.244;10.074;2023-12-22T15:01:19;98700.94;;;6.63;73.97
18504;BME280;9381;54.244;10.074;2023-12-22T15:06:19;98691.84;;;6.81;73.81
18504;BME280;9381;54.244;10.074;2023-12-22T15:11:20;98699.72;;;6.71;73.20
18504;BME280;9381;54.244;10.074;2023-12-22T15:16:20;98708.13;;;6.74;73.71
18504;BME280;9381;54.244;10.074;2023-12-22T15:21:21;98718.75;;;6.69;73.41
18504;BME280;9381;54.244;10.074;2023-12-22T15:26:23;98725.44;;;6.67;72.83
18504;BME280;9381;54.244;10.074;2023-12-22T15:31:23;98728.00;;;6.73;72.65
18504;BME280;9381;54.244;10.074;2023-12-22T15:36:24;98732.72;;;6.83;72.31
18504;BME280;9381;54.244;10.074;2023-12-22T15:41:31;98722.63;;;6.73;72.62
18504;BME280;9381;54.244;10.074;2023-12-22T15:46:31;98709.06;;;6.68;73.59
18504;BME280;9381;54.244;10.074;2023-12-22T15:51:32;98716.84;;;6.53;73.32
18504;BME280;9381;54.244;10.074;2023-12-22T15:56:32;98716.63;;;6.43;74.16
18504;BME280;9381;54.244;10.074;2023-12-22T16:01:32;98730.13;;;6.60;74.89
18504;BME280;9381;54.244;10.074;2023-12-22T16:06:33;98727.66;;;6.70;74.06
18504;BME280;9381;54.244;10.074;2023-12-22T16:11:33;98720.69;;;6.57;74.75
18504;BME280;9381;54.244;10.074;2023-12-22T16:16:33;98737.84;;;6.56;76.09
18504;BME280;9381;54.244;10.074;2023-12-22T16:21:40;98747.66;;;6.62;75.30
18504;BME280;9381;54.244;10.074;2023-12-22T16:26:41;98739.09;;;6.65;76.11
18504;BME280;9381;54.244;10.074;2023-12-22T16:31:41;98739.09;;;6.65;76.74
18504;BME280;9381;54.244;10.074;2023-12-22T16:36:44;98743.41;;;6.66;76.62
18504;BME280;9381;54.244;10.074;2023-12-22T16:41:45;98723.25;;;6.52;77.29
18504;BME280;9381;54.244;10.074;2023-12-22T16:46:46;98733.16;;;6.63;76.13
18504;BME280;9381;54.244;10.074;2023-12-22T16:51:46;98728.84;;;6.62;75.89
18504;BME280;9381;54.244;10.074;2023-12-22T16:56:47;98729.88;;;6.61;76.30
18504;BME280;9381;54.244;10.074;2023-12-22T17:01:48;98739.28;;;6.75;75.78
18504;BME280;9381;54.244;10.074;2023-12-22T17:06:50;98714.34;;;6.91;73.92
18504;BME280;9381;54.244;10.074;2023-12-22T17:11:51;98710.50;;;6.87;74.29
18504;BME280;9381;54.244;10.074;2023-12-22T17:16:51;98715.97;;;6.92;73.73
18504;BME280;9381;54.244;10.074;2023-12-22T17:21:52;98731.91;;;6.82;73.52
18504;BME280;9381;54.244;10.074;2023-12-22T17:26:52;98745.75;;;6.63;75.23
18504;BME280;9381;54.244;10.074;2023-12-22T17:31:53;98736.63;;;6.75;74.87
18504;BME280;9381;54.244;10.074;2023-12-22T17:36:56;98744.19;;;6.78;73.87
18504;BME280;9381;54.244;10.074;2023-12-22T17:41:56;98744.28;;;6.83;73.97
18504;BME280;9381;54.244;10.074;2023-12-22T17:46:57;98740.06;;;6.87;74.83
18504;BME280;9381;54.244;10.074;2023-12-22T17:52:02;98737.13;;;6.89;76.35
18504;BME280;9381;54.244;10.074;2023-12-22T17:57:04;98734.78;;;6.64;78.59
18504;BME280;9381;54.244;10.074;2023-12-22T18:02:05;98756.50;;;6.63;80.39
18504;BME280;9381;54.244;10.074;2023-12-22T18:07:06;98751.84;;;6.58;81.69
18504;BME280;9381;54.244;10.074;2023-12-22T18:12:06;98767.81;;;6.65;82.68
18504;BME280;9381;54.244;10.074;2023-12-22T18:17:07;98771.22;;;6.60;82.19
18504;BME280;9381;54.244;10.074;2023-12-22T18:22:07;98784.03;;;6.19;89.07
18504;BME280;9381;54.244;10.074;2023-12-22T18:27:07;98793.00;;;6.24;90.42
18504;BME280;9381;54.244;10.074;2023-12-22T18:32:08;98799.00;;;6.15;91.22
18504;BME280;9381;54.244;10.074;2023-12-22T18:37:08;98788.13;;;6.21;92.25
18504;BME280;9381;54.244;10.074;2023-12-22T18:42:09;98780.91;;;6.10;92.75
18504;BME280;9381;54.244;10.074;2023-12-22T18:47:09;98793.28;;;6.11;93.46
18504;BME280;9381;54.244;10.074;2023-12-22T18:52:09;98784.16;;;6.12;93.62
18504;BME280;9381;54.244;10.074;2023-12-22T18:57:10;98792.44;;;6.11;94.11
18504;BME280;9381;54.244;10.074;2023-12-22T19:02:10;98816.38;;;6.12;94.99
18504;BME280;9381;54.244;10.074;2023-12-22T19:07:10;98803.09;;;6.17;94.22
18504;BME280;9381;54.244;10.074;2023-12-22T19:12:11;98814.72;;;5.88;94.60
18504;BME280;9381;54.244;10.074;2023-12-22T19:17:11;98815.78;;;5.99;94.49
18504;BME280;9381;54.244;10.074;2023-12-22T19:22:12;98813.22;;;5.92;95.05
18504;BME280;9381;54.244;10.074;2023-12-22T19:27:12;98807.50;;;6.00;94.87
18504;BME280;9381;54.244;10.074;2023-12-22T19:32:12;98815.44;;;5.95;94.43
18504;BME280;9381;54.244;10.074;2023-12-22T19:37:13;98807.63;;;5.94;94.57
18504;BME280;9381;54.244;10.074;2023-12-22T19:42:17;98818.25;;;6.00;96.03
18504;BME280;9381;54.244;10.074;2023-12-22T19:47:18;98840.44;;;5.66;97.26
18504;BME280;9381;54.244;10.074;2023-12-22T19:52:18;98833.59;;;5.70;97.94
18504;BME280;9381;54.244;10.074;2023-12-22T19:57:19;98876.94;;;5.67;98.79
18504;BME280;9381;54.244;10.074;2023-12-22T20:02:19;98851.06;;;5.62;99.00
18504;BME280;9381;54.244;10.074;2023-12-22T20:07:20;98846.88;;;5.65;99.84
18504;BME280;9381;54.244;10.074;2023-12-22T20:12:20;98833.22;;;5.56;99.86
18504;BME280;9381;54.244;10.074;2023-12-22T20:17:21;98868.78;;;5.63;100.00
18504;BME280;9381;54.244;10.074;2023-12-22T20:22:22;98868.53;;;5.53;100.00
18504;BME280;9381;54.244;10.074;2023-12-22T20:27:22;98892.78;;;5.57;100.00
18504;BME280;9381;54.244;10.074;2023-12-22T20:32:22;98881.84;;;5.30;99.41
18504;BME280;9381;54.244;10.074;2023-12-22T20:37:23;98888.41;;;5.16;99.37
18504;BME280;9381;54.244;10.074;2023-12-22T20:42:23;98897.34;;;5.28;99.26
18504;BME280;9381;54.244;10.074;2023-12-22T20:47:23;98886.75;;;5.33;98.72
18504;BME280;9381;54.244;10.074;2023-12-22T20:52:24;98903.41;;;5.05;99.78
18504;BME280;9381;54.244;10.074;2023-12-22T20:57:24;98891.81;;;5.11;99.85
18504;BME280;9381;54.244;10.074;2023-12-22T21:02:24;98888.41;;;5.16;100.00
18504;BME280;9381;54.244;10.074;2023-12-22T21:07:25;98919.97;;;5.14;99.26
18504;BME280;9381;54.244;10.074;2023-12-22T21:12:26;98922.47;;;4.79;100.00
18504;BME280;9381;54.244;10.074;2023-12-22T21:17:26;98950.81;;;4.87;100.00
18504;BME280;9381;54.244;10.074;2023-12-22T21:22:26;98969.25;;;4.77;100.00
18504;BME280;9381;54.244;10.074;2023-12-22T21:27:27;98983.22;;;4.79;100.00
18504;BME280;9381;54.244;10.074;2023-12-22T21:32:27;98997.16;;;4.87;100.00
18504;BME280;9381;54.244;10.074;2023-12-22T21:37:27;99012.09;;;4.77;100.00
18504;BME280;9381;54.244;10.074;2023-12-22T21:42:28;99006.31;;;4.80;100.00
18504;BME280;9381;54.244;10.074;2023-12-22T21:47:29;99017.34;;;4.90;100.00
18504;BME280;9381;54.244;10.074;2023-12-22T21:52:29;99036.69;;;4.92;100.00
18504;BME280;9381;54.244;10.074;2023-12-22T21:57:29;99037.00;;;5.02;100.00
18504;BME280;9381;54.244;10.074;2023-12-22T22:02:30;99048.09;;;5.05;100.00
18504;BME280;9381;54.244;10.074;2023-12-22T22:07:30;99059.00;;;5.04;100.00
18504;BME280;9381;54.244;10.074;2023-12-22T22:12:30;99064.91;;;4.94;99.72
18504;BME280;9381;54.244;10.074;2023-12-22T22:17:31;99076.84;;;4.92;99.65
18504;BME280;9381;54.244;10.074;2023-12-22T22:22:31;99086.47;;;4.99;99.08
18504;BME280;9381;54.244;10.074;2023-12-22T22:27:31;99088.91;;;4.83;98.99
18504;BME280;9381;54.244;10.074;2023-12-22T22:32:32;99112.56;;;4.86;99.80
18504;BME280;9381;54.244;10.074;2023-12-22T22:37:32;99123.38;;;4.73;98.97
18504;BME280;9381;54.244;10.074;2023-12-22T22:42:33;99132.84;;;4.75;99.89
18504;BME280;9381;54.244;10.074;2023-12-22T22:47:33;99130.81;;;4.71;99.34
18504;BME280;9381;54.244;10.074;2023-12-22T22:52:34;99137.94;;;4.52;98.60
18504;BME280;9381;54.244;10.074;2023-12-22T22:57:34;99155.47;;;4.48;98.88
18504;BME280;9381;54.244;10.074;2023-12-22T23:02:34;99157.03;;;4.31;99.36
18504;BME280;9381;54.244;10.074;2023-12-22T23:07:35;99180.47;;;4.36;100.00
18504;BME280;9381;54.244;10.074;2023-12-22T23:12:35;99177.94;;;4.41;98.73
18504;BME280;9381;54.244;10.074;2023-12-22T23:17:35;99206.84;;;4.32;98.23
18504;BME280;9381;54.244;10.074;2023-12-22T23:22:36;99223.09;;;4.31;98.59
18504;BME280;9381;54.244;10.074;2023-12-22T23:27:36;99244.63;;;4.49;97.21
18504;BME280;9381;54.244;10.074;2023-12-22T23:32:36;99238.31;;;4.37;97.25
18504;BME280;9381;54.244;10.074;2023-12-22T23:37:37;99257.03;;;4.37;96.67
18504;BME280;9381;54.244;10.074;2023-12-22T23:42:37;99270.59;;;4.42;95.86
18504;BME280;9381;54.244;10.074;2023-12-22T23:47:37;99266.47;;;4.46;95.33
18504;BME280;9381;54.244;10.074;2023-12-22T23:52:38;99290.25;;;4.67;94.47
18504;BME280;9381;54.244;10.074;2023-12-22T23:57:38;99294.41;;;4.56;94.77
